sensor_id;sensor_type;location;lat;lon;timestamp;P1;durP1;ratioP1;P2;durP2;ratioP2
17844;SDS011;9047;53.486;10.218;2023-11-21T00:00:23;30.52;;;12.15;;
17844;SDS011;9047;53.486;10.218;2023-11-21T00:02:51;32.28;;;12.60;;
17844;SDS011;9047;53.486;10.218;2023-11-21T00:05:18;34.78;;;12.60;;
17844;SDS011;9047;53.486;10.218;2023-11-21T00:07:44;35.00;;;12.85;;
17844;SDS011;9047;53.486;10.218;2023-11-21T00:10:11;32.53;;;12.65;;
17844;SDS011;9047;53.486;10.218;2023-11-21T00:12:41;32.17;;;12.38;;
17844;SDS011;9047;53.486;10.218;2023-11-21T00:15:08;33.42;;;13.27;;
17844;SDS011;9047;53.486;10.218;2023-11-21T00:17:36;51.50;;;14.48;;
17844;SDS011;9047;53.486;10.218;2023-11-21T00:20:05;30.80;;;12.73;;
17844;SDS011;9047;53.486;10.218;2023-11-21T00:22:33;33.25;;;13.13;;
17844;SDS011;9047;53.486;10.218;2023-11-21T00:25:00;43.78;;;14.32;;
17844;SDS011;9047;53.486;10.218;2023-11-21T00:27:28;34.97;;;13.13;;
17844;SDS011;9047;53.486;10.218;2023-11-21T00:29:55;34.33;;;13.85;;
17844;SDS011;9047;53.486;10.218;2023-11-21T00:32:22;30.60;;;13.10;;
17844;SDS011;9047;53.486;10.218;2023-11-21T00:34:49;31.35;;;13.80;;
17844;SDS011;9047;53.486;10.218;2023-11-21T00:37:17;33.92;;;14.00;;
17844;SDS011;9047;53.486;10.218;2023-11-21T00:39:43;39.67;;;16.08;;
17844;SDS011;9047;53.486;10.218;2023-11-21T00:42:10;39.53;;;15.98;;
17844;SDS011;9047;53.486;10.218;2023-11-21T00:44:37;39.63;;;15.93;;
17844;SDS011;9047;53.486;10.218;2023-11-21T00:47:05;49.15;;;16.40;;
17844;SDS011;9047;53.486;10.218;2023-11-21T00:49:33;32.92;;;14.75;;
17844;SDS011;9047;53.486;10.218;2023-11-21T00:51:59;39.30;;;15.77;;
17844;SDS011;9047;53.486;10.218;2023-11-21T00:54:28;35.47;;;15.40;;
17844;SDS011;9047;53.486;10.218;2023-11-21T00:56:54;32.28;;;14.85;;
17844;SDS011;9047;53.486;10.218;2023-11-21T00:59:21;35.05;;;15.85;;
17844;SDS011;9047;53.486;10.218;2023-11-21T01:01:49;31.50;;;14.80;;
17844;SDS011;9047;53.486;10.218;2023-11-21T01:04:16;30.52;;;14.55;;
17844;SDS011;9047;53.486;10.218;2023-11-21T01:06:42;36.38;;;15.88;;
17844;SDS011;9047;53.486;10.218;2023-11-21T01:09:10;40.83;;;17.45;;
17844;SDS011;9047;53.486;10.218;2023-11-21T01:11:39;34.70;;;16.48;;
17844;SDS011;9047;53.486;10.218;2023-11-21T01:14:05;37.03;;;16.90;;
17844;SDS011;9047;53.486;10.218;2023-11-21T01:16:33;37.65;;;17.17;;
17844;SDS011;9047;53.486;10.218;2023-11-21T01:19:00;37.50;;;17.15;;
17844;SDS011;9047;53.486;10.218;2023-11-21T01:21:27;39.45;;;17.80;;
17844;SDS011;9047;53.486;10.218;2023-11-21T01:23:55;37.83;;;18.05;;
17844;SDS011;9047;53.486;10.218;2023-11-21T01:26:22;36.92;;;16.20;;
17844;SDS011;9047;53.486;10.218;2023-11-21T01:28:50;31.17;;;15.48;;
17844;SDS011;9047;53.486;10.218;2023-11-21T01:31:17;30.13;;;15.80;;
17844;SDS011;9047;53.486;10.218;2023-11-21T01:33:44;30.80;;;15.77;;
17844;SDS011;9047;53.486;10.218;2023-11-21T01:36:11;36.55;;;15.88;;
17844;SDS011;9047;53.486;10.218;2023-11-21T01:38:37;28.98;;;15.57;;
17844;SDS011;9047;53.486;10.218;2023-11-21T01:41:04;28.27;;;14.60;;
17844;SDS011;9047;53.486;10.218;2023-11-21T01:43:31;32.70;;;15.43;;
17844;SDS011;9047;53.486;10.218;2023-11-21T01:46:00;30.10;;;15.50;;
17844;SDS011;9047;53.486;10.218;2023-11-21T01:48:28;29.02;;;14.40;;
17844;SDS011;9047;53.486;10.218;2023-11-21T01:50:55;27.80;;;14.48;;
17844;SDS011;9047;53.486;10.218;2023-11-21T01:53:23;27.83;;;13.95;;
17844;SDS011;9047;53.486;10.218;2023-11-21T01:55:51;29.58;;;13.55;;
17844;SDS011;9047;53.486;10.218;2023-11-21T01:58:19;24.63;;;13.13;;
17844;SDS011;9047;53.486;10.218;2023-11-21T02:00:46;21.27;;;12.07;;
17844;SDS011;9047;53.486;10.218;2023-11-21T02:03:16;26.80;;;13.07;;
17844;SDS011;9047;53.486;10.218;2023-11-21T02:05:43;25.15;;;13.05;;
17844;SDS011;9047;53.486;10.218;2023-11-21T02:08:10;26.17;;;12.10;;
17844;SDS011;9047;53.486;10.218;2023-11-21T02:10:37;21.50;;;11.90;;
17844;SDS011;9047;53.486;10.218;2023-11-21T02:13:03;19.77;;;10.73;;
17844;SDS011;9047;53.486;10.218;2023-11-21T02:15:31;19.80;;;11.05;;
17844;SDS011;9047;53.486;10.218;2023-11-21T02:17:58;22.75;;;11.15;;
17844;SDS011;9047;53.486;10.218;2023-11-21T02:20:27;21.00;;;10.88;;
17844;SDS011;9047;53.486;10.218;2023-11-21T02:22:56;19.50;;;11.15;;
17844;SDS011;9047;53.486;10.218;2023-11-21T02:25:24;20.10;;;10.93;;
17844;SDS011;9047;53.486;10.218;2023-11-21T02:27:51;20.55;;;10.40;;
17844;SDS011;9047;53.486;10.218;2023-11-21T02:30:19;18.35;;;10.25;;
17844;SDS011;9047;53.486;10.218;2023-11-21T02:32:46;19.45;;;10.75;;
17844;SDS011;9047;53.486;10.218;2023-11-21T02:35:13;17.95;;;9.48;;
17844;SDS011;9047;53.486;10.218;2023-11-21T02:37:40;18.58;;;10.15;;
17844;SDS011;9047;53.486;10.218;2023-11-21T02:40:10;17.33;;;10.13;;
17844;SDS011;9047;53.486;10.218;2023-11-21T02:42:38;18.33;;;9.85;;
17844;SDS011;9047;53.486;10.218;2023-11-21T02:45:06;20.25;;;10.63;;
17844;SDS011;9047;53.486;10.218;2023-11-21T02:47:33;25.38;;;11.10;;
17844;SDS011;9047;53.486;10.218;2023-11-21T02:50:00;19.60;;;11.05;;
17844;SDS011;9047;53.486;10.218;2023-11-21T02:52:26;22.35;;;11.75;;
17844;SDS011;9047;53.486;10.218;2023-11-21T02:54:53;21.20;;;10.98;;
17844;SDS011;9047;53.486;10.218;2023-11-21T02:57:21;22.60;;;11.65;;
17844;SDS011;9047;53.486;10.218;2023-11-21T02:59:48;23.50;;;12.02;;
17844;SDS011;9047;53.486;10.218;2023-11-21T03:02:15;21.30;;;11.27;;
17844;SDS011;9047;53.486;10.218;2023-11-21T03:04:42;23.38;;;12.20;;
17844;SDS011;9047;53.486;10.218;2023-11-21T03:07:09;23.55;;;12.13;;
17844;SDS011;9047;53.486;10.218;2023-11-21T03:09:36;23.48;;;11.52;;
17844;SDS011;9047;53.486;10.218;2023-11-21T03:12:03;23.55;;;11.48;;
17844;SDS011;9047;53.486;10.218;2023-11-21T03:14:30;23.00;;;11.25;;
17844;SDS011;9047;53.486;10.218;2023-11-21T03:16:57;24.73;;;12.52;;
17844;SDS011;9047;53.486;10.218;2023-11-21T03:19:24;25.63;;;12.20;;
17844;SDS011;9047;53.486;10.218;2023-11-21T03:21:50;24.77;;;12.80;;
17844;SDS011;9047;53.486;10.218;2023-11-21T03:24:18;24.77;;;12.15;;
17844;SDS011;9047;53.486;10.218;2023-11-21T03:26:45;21.25;;;11.93;;
17844;SDS011;9047;53.486;10.218;2023-11-21T03:29:12;24.83;;;12.00;;
17844;SDS011;9047;53.486;10.218;2023-11-21T03:31:40;21.50;;;12.32;;
17844;SDS011;9047;53.486;10.218;2023-11-21T03:34:11;26.73;;;13.32;;
17844;SDS011;9047;53.486;10.218;2023-11-21T03:36:41;26.63;;;12.43;;
17844;SDS011;9047;53.486;10.218;2023-11-21T03:39:07;22.30;;;11.73;;
17844;SDS011;9047;53.486;10.218;2023-11-21T03:41:34;26.25;;;12.52;;
17844;SDS011;9047;53.486;10.218;2023-11-21T03:44:01;27.45;;;12.52;;
17844;SDS011;9047;53.486;10.218;2023-11-21T03:46:28;23.48;;;12.75;;
17844;SDS011;9047;53.486;10.218;2023-11-21T03:48:56;22.98;;;12.02;;
17844;SDS011;9047;53.486;10.218;2023-11-21T03:51:23;25.75;;;12.05;;
17844;SDS011;9047;53.486;10.218;2023-11-21T03:53:51;22.52;;;12.52;;
17844;SDS011;9047;53.486;10.218;2023-11-21T03:56:18;21.65;;;11.27;;
17844;SDS011;9047;53.486;10.218;2023-11-21T03:58:46;21.92;;;12.10;;
17844;SDS011;9047;53.486;10.218;2023-11-21T04:01:18;23.05;;;11.77;;
17844;SDS011;9047;53.486;10.218;2023-11-21T04:03:46;23.17;;;12.00;;
17844;SDS011;9047;53.486;10.218;2023-11-21T04:06:14;23.95;;;12.27;;
17844;SDS011;9047;53.486;10.218;2023-11-21T04:08:42;20.85;;;11.60;;
17844;SDS011;9047;53.486;10.218;2023-11-21T04:11:09;23.30;;;12.02;;
17844;SDS011;9047;53.486;10.218;2023-11-21T04:13:36;26.23;;;12.25;;
17844;SDS011;9047;53.486;10.218;2023-11-21T04:16:03;25.95;;;12.88;;
17844;SDS011;9047;53.486;10.218;2023-11-21T04:18:31;21.98;;;11.68;;
17844;SDS011;9047;53.486;10.218;2023-11-21T04:20:58;24.90;;;12.50;;
17844;SDS011;9047;53.486;10.218;2023-11-21T04:23:27;22.80;;;11.70;;
17844;SDS011;9047;53.486;10.218;2023-11-21T04:25:55;26.33;;;12.60;;
17844;SDS011;9047;53.486;10.218;2023-11-21T04:28:22;23.00;;;11.90;;
17844;SDS011;9047;53.486;10.218;2023-11-21T04:30:49;23.05;;;11.90;;
17844;SDS011;9047;53.486;10.218;2023-11-21T04:33:16;22.63;;;11.40;;
17844;SDS011;9047;53.486;10.218;2023-11-21T04:35:43;23.42;;;12.50;;
17844;SDS011;9047;53.486;10.218;2023-11-21T04:38:09;25.17;;;12.43;;
17844;SDS011;9047;53.486;10.218;2023-11-21T04:40:38;22.67;;;11.65;;
17844;SDS011;9047;53.486;10.218;2023-11-21T04:43:04;22.42;;;11.77;;
17844;SDS011;9047;53.486;10.218;2023-11-21T04:45:31;20.55;;;11.77;;
17844;SDS011;9047;53.486;10.218;2023-11-21T04:47:58;21.23;;;11.40;;
17844;SDS011;9047;53.486;10.218;2023-11-21T04:50:25;20.42;;;11.82;;
17844;SDS011;9047;53.486;10.218;2023-11-21T04:52:52;21.23;;;11.05;;
17844;SDS011;9047;53.486;10.218;2023-11-21T04:55:19;22.75;;;11.05;;
17844;SDS011;9047;53.486;10.218;2023-11-21T04:57:47;24.83;;;11.85;;
17844;SDS011;9047;53.486;10.218;2023-11-21T05:00:14;20.75;;;10.75;;
17844;SDS011;9047;53.486;10.218;2023-11-21T05:02:41;24.25;;;11.77;;
17844;SDS011;9047;53.486;10.218;2023-11-21T05:05:09;21.23;;;11.20;;
17844;SDS011;9047;53.486;10.218;2023-11-21T05:07:36;20.48;;;11.40;;
17844;SDS011;9047;53.486;10.218;2023-11-21T05:10:04;20.27;;;11.20;;
17844;SDS011;9047;53.486;10.218;2023-11-21T05:12:36;21.13;;;11.50;;
17844;SDS011;9047;53.486;10.218;2023-11-21T05:15:06;23.50;;;11.95;;
17844;SDS011;9047;53.486;10.218;2023-11-21T05:17:34;21.15;;;10.85;;
17844;SDS011;9047;53.486;10.218;2023-11-21T05:20:01;19.75;;;11.23;;
17844;SDS011;9047;53.486;10.218;2023-11-21T05:22:29;22.45;;;11.52;;
17844;SDS011;9047;53.486;10.218;2023-11-21T05:24:56;19.40;;;10.52;;
17844;SDS011;9047;53.486;10.218;2023-11-21T05:27:24;22.60;;;12.15;;
17844;SDS011;9047;53.486;10.218;2023-11-21T05:29:51;19.70;;;11.30;;
17844;SDS011;9047;53.486;10.218;2023-11-21T05:32:19;21.42;;;11.52;;
17844;SDS011;9047;53.486;10.218;2023-11-21T05:34:46;20.50;;;11.10;;
17844;SDS011;9047;53.486;10.218;2023-11-21T05:37:12;16.30;;;10.68;;
17844;SDS011;9047;53.486;10.218;2023-11-21T05:39:39;22.15;;;11.57;;
17844;SDS011;9047;53.486;10.218;2023-11-21T05:42:06;20.10;;;11.00;;
17844;SDS011;9047;53.486;10.218;2023-11-21T05:44:34;19.73;;;11.77;;
17844;SDS011;9047;53.486;10.218;2023-11-21T05:47:01;19.38;;;11.00;;
17844;SDS011;9047;53.486;10.218;2023-11-21T05:49:30;20.23;;;10.85;;
17844;SDS011;9047;53.486;10.218;2023-11-21T05:51:58;18.05;;;11.38;;
17844;SDS011;9047;53.486;10.218;2023-11-21T05:54:25;20.15;;;11.60;;
17844;SDS011;9047;53.486;10.218;2023-11-21T05:56:52;16.90;;;10.75;;
17844;SDS011;9047;53.486;10.218;2023-11-21T05:59:19;22.75;;;11.95;;
17844;SDS011;9047;53.486;10.218;2023-11-21T06:01:47;19.38;;;11.90;;
17844;SDS011;9047;53.486;10.218;2023-11-21T06:04:14;20.55;;;11.52;;
17844;SDS011;9047;53.486;10.218;2023-11-21T06:06:42;18.05;;;10.85;;
17844;SDS011;9047;53.486;10.218;2023-11-21T06:09:09;21.52;;;12.20;;
17844;SDS011;9047;53.486;10.218;2023-11-21T06:11:37;18.75;;;11.15;;
17844;SDS011;9047;53.486;10.218;2023-11-21T06:14:04;27.42;;;12.88;;
17844;SDS011;9047;53.486;10.218;2023-11-21T06:16:33;19.83;;;11.27;;
17844;SDS011;9047;53.486;10.218;2023-11-21T06:18:59;19.52;;;11.23;;
17844;SDS011;9047;53.486;10.218;2023-11-21T06:21:26;27.20;;;11.93;;
17844;SDS011;9047;53.486;10.218;2023-11-21T06:23:55;20.02;;;11.90;;
17844;SDS011;9047;53.486;10.218;2023-11-21T06:26:22;19.88;;;11.68;;
17844;SDS011;9047;53.486;10.218;2023-11-21T06:28:49;20.10;;;11.50;;
17844;SDS011;9047;53.486;10.218;2023-11-21T06:31:17;22.25;;;12.55;;
17844;SDS011;9047;53.486;10.218;2023-11-21T06:33:44;19.67;;;11.80;;
17844;SDS011;9047;53.486;10.218;2023-11-21T06:36:11;21.65;;;12.88;;
17844;SDS011;9047;53.486;10.218;2023-11-21T06:38:38;23.20;;;12.18;;
17844;SDS011;9047;53.486;10.218;2023-11-21T06:41:07;20.65;;;12.32;;
17844;SDS011;9047;53.486;10.218;2023-11-21T06:43:34;18.85;;;11.00;;
17844;SDS011;9047;53.486;10.218;2023-11-21T06:46:01;19.38;;;11.95;;
17844;SDS011;9047;53.486;10.218;2023-11-21T06:48:29;18.63;;;11.63;;
17844;SDS011;9047;53.486;10.218;2023-11-21T06:50:56;19.52;;;11.38;;
17844;SDS011;9047;53.486;10.218;2023-11-21T06:53:23;18.83;;;11.20;;
17844;SDS011;9047;53.486;10.218;2023-11-21T06:55:50;21.55;;;11.80;;
17844;SDS011;9047;53.486;10.218;2023-11-21T06:58:18;18.35;;;10.63;;
17844;SDS011;9047;53.486;10.218;2023-11-21T07:00:45;17.90;;;11.30;;
17844;SDS011;9047;53.486;10.218;2023-11-21T07:03:15;18.80;;;11.75;;
17844;SDS011;9047;53.486;10.218;2023-11-21T07:05:44;18.60;;;11.50;;
17844;SDS011;9047;53.486;10.218;2023-11-21T07:08:14;19.13;;;11.02;;
17844;SDS011;9047;53.486;10.218;2023-11-21T07:10:40;18.30;;;11.00;;
17844;SDS011;9047;53.486;10.218;2023-11-21T07:13:07;18.92;;;10.80;;
17844;SDS011;9047;53.486;10.218;2023-11-21T07:15:39;17.52;;;10.27;;
17844;SDS011;9047;53.486;10.218;2023-11-21T07:18:06;17.48;;;11.45;;
17844;SDS011;9047;53.486;10.218;2023-11-21T07:20:33;17.85;;;11.07;;
17844;SDS011;9047;53.486;10.218;2023-11-21T07:23:00;18.05;;;11.52;;
17844;SDS011;9047;53.486;10.218;2023-11-21T07:25:26;18.85;;;11.10;;
17844;SDS011;9047;53.486;10.218;2023-11-21T07:27:53;18.77;;;11.25;;
17844;SDS011;9047;53.486;10.218;2023-11-21T07:30:21;17.45;;;11.07;;
17844;SDS011;9047;53.486;10.218;2023-11-21T07:32:49;17.77;;;11.32;;
17844;SDS011;9047;53.486;10.218;2023-11-21T07:35:16;19.60;;;11.40;;
17844;SDS011;9047;53.486;10.218;2023-11-21T07:37:43;18.58;;;10.85;;
17844;SDS011;9047;53.486;10.218;2023-11-21T07:40:12;18.25;;;11.18;;
17844;SDS011;9047;53.486;10.218;2023-11-21T07:42:39;20.35;;;12.60;;
17844;SDS011;9047;53.486;10.218;2023-11-21T07:45:08;19.17;;;11.65;;
17844;SDS011;9047;53.486;10.218;2023-11-21T07:47:35;20.67;;;11.48;;
17844;SDS011;9047;53.486;10.218;2023-11-21T07:50:07;17.52;;;11.45;;
17844;SDS011;9047;53.486;10.218;2023-11-21T07:52:34;18.77;;;12.13;;
17844;SDS011;9047;53.486;10.218;2023-11-21T07:55:01;17.73;;;11.50;;
17844;SDS011;9047;53.486;10.218;2023-11-21T07:57:28;18.83;;;11.55;;
17844;SDS011;9047;53.486;10.218;2023-11-21T07:59:55;18.30;;;11.30;;
17844;SDS011;9047;53.486;10.218;2023-11-21T08:02:25;18.25;;;11.52;;
17844;SDS011;9047;53.486;10.218;2023-11-21T08:04:53;18.67;;;11.82;;
17844;SDS011;9047;53.486;10.218;2023-11-21T08:07:23;17.65;;;11.52;;
17844;SDS011;9047;53.486;10.218;2023-11-21T08:09:51;19.52;;;11.07;;
17844;SDS011;9047;53.486;10.218;2023-11-21T08:12:18;18.85;;;11.48;;
17844;SDS011;9047;53.486;10.218;2023-11-21T08:14:45;17.35;;;10.65;;
17844;SDS011;9047;53.486;10.218;2023-11-21T08:17:12;17.88;;;10.20;;
17844;SDS011;9047;53.486;10.218;2023-11-21T08:19:39;19.63;;;10.40;;
17844;SDS011;9047;53.486;10.218;2023-11-21T08:22:08;13.75;;;9.52;;
17844;SDS011;9047;53.486;10.218;2023-11-21T08:24:36;14.23;;;9.30;;
17844;SDS011;9047;53.486;10.218;2023-11-21T08:27:03;15.55;;;9.60;;
17844;SDS011;9047;53.486;10.218;2023-11-21T08:29:31;14.93;;;9.05;;
17844;SDS011;9047;53.486;10.218;2023-11-21T08:31:59;12.40;;;8.98;;
17844;SDS011;9047;53.486;10.218;2023-11-21T08:34:26;15.95;;;9.00;;
17844;SDS011;9047;53.486;10.218;2023-11-21T08:36:53;13.80;;;8.63;;
17844;SDS011;9047;53.486;10.218;2023-11-21T08:39:20;11.43;;;8.10;;
17844;SDS011;9047;53.486;10.218;2023-11-21T08:41:50;13.57;;;8.43;;
17844;SDS011;9047;53.486;10.218;2023-11-21T08:44:17;11.38;;;7.57;;
17844;SDS011;9047;53.486;10.218;2023-11-21T08:46:44;10.98;;;7.60;;
17844;SDS011;9047;53.486;10.218;2023-11-21T08:49:11;11.07;;;7.63;;
17844;SDS011;9047;53.486;10.218;2023-11-21T08:51:39;11.70;;;7.53;;
17844;SDS011;9047;53.486;10.218;2023-11-21T08:54:06;11.73;;;7.28;;
17844;SDS011;9047;53.486;10.218;2023-11-21T08:56:34;9.85;;;7.18;;
17844;SDS011;9047;53.486;10.218;2023-11-21T08:59:03;10.10;;;7.13;;
17844;SDS011;9047;53.486;10.218;2023-11-21T09:01:30;9.68;;;7.13;;
17844;SDS011;9047;53.486;10.218;2023-11-21T09:03:57;10.13;;;6.55;;
17844;SDS011;9047;53.486;10.218;2023-11-21T09:06:25;11.70;;;7.10;;
17844;SDS011;9047;53.486;10.218;2023-11-21T09:08:52;10.02;;;6.20;;
17844;SDS011;9047;53.486;10.218;2023-11-21T09:11:18;11.25;;;6.55;;
17844;SDS011;9047;53.486;10.218;2023-11-21T09:13:45;9.27;;;6.07;;
17844;SDS011;9047;53.486;10.218;2023-11-21T09:16:14;9.05;;;6.20;;
17844;SDS011;9047;53.486;10.218;2023-11-21T09:18:41;9.77;;;5.93;;
17844;SDS011;9047;53.486;10.218;2023-11-21T09:21:10;8.38;;;5.15;;
17844;SDS011;9047;53.486;10.218;2023-11-21T09:23:37;7.30;;;5.10;;
17844;SDS011;9047;53.486;10.218;2023-11-21T09:26:04;7.13;;;4.90;;
17844;SDS011;9047;53.486;10.218;2023-11-21T09:28:31;9.20;;;5.25;;
17844;SDS011;9047;53.486;10.218;2023-11-21T09:30:59;9.20;;;5.60;;
17844;SDS011;9047;53.486;10.218;2023-11-21T09:33:29;7.95;;;5.72;;
17844;SDS011;9047;53.486;10.218;2023-11-21T09:35:56;7.70;;;5.00;;
17844;SDS011;9047;53.486;10.218;2023-11-21T09:38:23;6.50;;;5.40;;
17844;SDS011;9047;53.486;10.218;2023-11-21T09:40:50;5.00;;;4.10;;
17844;SDS011;9047;53.486;10.218;2023-11-21T09:43:20;6.97;;;4.20;;
17844;SDS011;9047;53.486;10.218;2023-11-21T09:45:48;5.82;;;4.10;;
17844;SDS011;9047;53.486;10.218;2023-11-21T09:48:20;5.20;;;3.78;;
17844;SDS011;9047;53.486;10.218;2023-11-21T09:50:48;6.22;;;3.72;;
17844;SDS011;9047;53.486;10.218;2023-11-21T09:53:17;6.53;;;3.67;;
17844;SDS011;9047;53.486;10.218;2023-11-21T09:55:47;5.68;;;3.78;;
17844;SDS011;9047;53.486;10.218;2023-11-21T09:58:16;5.07;;;3.33;;
17844;SDS011;9047;53.486;10.218;2023-11-21T10:00:44;5.10;;;3.88;;
17844;SDS011;9047;53.486;10.218;2023-11-21T10:03:13;5.20;;;3.40;;
17844;SDS011;9047;53.486;10.218;2023-11-21T10:05:41;4.75;;;3.38;;
17844;SDS011;9047;53.486;10.218;2023-11-21T10:08:13;6.20;;;3.17;;
17844;SDS011;9047;53.486;10.218;2023-11-21T10:10:42;4.85;;;3.35;;
17844;SDS011;9047;53.486;10.218;2023-11-21T10:13:11;6.68;;;3.42;;
17844;SDS011;9047;53.486;10.218;2023-11-21T10:15:42;5.22;;;3.63;;
17844;SDS011;9047;53.486;10.218;2023-11-21T10:18:13;5.18;;;3.30;;
17844;SDS011;9047;53.486;10.218;2023-11-21T10:20:41;4.78;;;3.05;;
17844;SDS011;9047;53.486;10.218;2023-11-21T10:23:12;6.38;;;3.42;;
17844;SDS011;9047;53.486;10.218;2023-11-21T10:25:41;6.13;;;3.45;;
17844;SDS011;9047;53.486;10.218;2023-11-21T10:28:08;5.10;;;3.33;;
17844;SDS011;9047;53.486;10.218;2023-11-21T10:30:37;4.50;;;3.50;;
17844;SDS011;9047;53.486;10.218;2023-11-21T10:33:05;6.45;;;3.55;;
17844;SDS011;9047;53.486;10.218;2023-11-21T10:35:39;5.53;;;3.28;;
17844;SDS011;9047;53.486;10.218;2023-11-21T10:38:16;4.95;;;3.60;;
17844;SDS011;9047;53.486;10.218;2023-11-21T10:40:43;4.95;;;4.03;;
17844;SDS011;9047;53.486;10.218;2023-11-21T10:43:11;4.63;;;3.38;;
17844;SDS011;9047;53.486;10.218;2023-11-21T10:45:40;7.55;;;3.90;;
17844;SDS011;9047;53.486;10.218;2023-11-21T10:48:07;4.65;;;3.00;;
17844;SDS011;9047;53.486;10.218;2023-11-21T10:50:36;5.60;;;3.40;;
17844;SDS011;9047;53.486;10.218;2023-11-21T10:53:03;3.85;;;3.30;;
17844;SDS011;9047;53.486;10.218;2023-11-21T10:55:33;4.82;;;3.30;;
17844;SDS011;9047;53.486;10.218;2023-11-21T10:58:01;5.55;;;3.40;;
17844;SDS011;9047;53.486;10.218;2023-11-21T11:00:32;3.80;;;2.83;;
17844;SDS011;9047;53.486;10.218;2023-11-21T11:02:59;3.60;;;3.03;;
17844;SDS011;9047;53.486;10.218;2023-11-21T11:05:30;3.83;;;2.92;;
17844;SDS011;9047;53.486;10.218;2023-11-21T11:07:58;4.20;;;3.10;;
17844;SDS011;9047;53.486;10.218;2023-11-21T11:10:26;4.82;;;3.00;;
17844;SDS011;9047;53.486;10.218;2023-11-21T11:12:56;4.47;;;3.33;;
17844;SDS011;9047;53.486;10.218;2023-11-21T11:15:23;4.45;;;3.28;;
17844;SDS011;9047;53.486;10.218;2023-11-21T11:17:51;4.55;;;3.20;;
17844;SDS011;9047;53.486;10.218;2023-11-21T11:20:22;4.10;;;3.40;;
17844;SDS011;9047;53.486;10.218;2023-11-21T11:22:52;5.32;;;3.05;;
17844;SDS011;9047;53.486;10.218;2023-11-21T11:25:34;5.38;;;3.13;;
17844;SDS011;9047;53.486;10.218;2023-11-21T11:28:15;6.85;;;3.30;;
17844;SDS011;9047;53.486;10.218;2023-11-21T11:30:50;5.80;;;3.38;;
17844;SDS011;9047;53.486;10.218;2023-11-21T11:33:31;4.13;;;3.53;;
17844;SDS011;9047;53.486;10.218;2023-11-21T11:36:04;5.45;;;3.25;;
17844;SDS011;9047;53.486;10.218;2023-11-21T11:38:34;4.50;;;3.08;;
17844;SDS011;9047;53.486;10.218;2023-11-21T11:41:02;5.55;;;3.42;;
17844;SDS011;9047;53.486;10.218;2023-11-21T11:43:31;4.93;;;3.20;;
17844;SDS011;9047;53.486;10.218;2023-11-21T11:46:05;6.03;;;3.97;;
17844;SDS011;9047;53.486;10.218;2023-11-21T11:48:34;4.60;;;3.13;;
17844;SDS011;9047;53.486;10.218;2023-11-21T11:51:04;6.40;;;3.83;;
17844;SDS011;9047;53.486;10.218;2023-11-21T11:53:37;4.90;;;3.40;;
17844;SDS011;9047;53.486;10.218;2023-11-21T11:56:19;4.60;;;3.58;;
17844;SDS011;9047;53.486;10.218;2023-11-21T11:58:53;6.68;;;3.78;;
17844;SDS011;9047;53.486;10.218;2023-11-21T12:01:21;6.68;;;3.55;;
17844;SDS011;9047;53.486;10.218;2023-11-21T12:06:56;5.53;;;3.50;;
17844;SDS011;9047;53.486;10.218;2023-11-21T12:09:27;5.78;;;3.38;;
17844;SDS011;9047;53.486;10.218;2023-11-21T12:11:56;5.28;;;3.83;;
17844;SDS011;9047;53.486;10.218;2023-11-21T12:14:27;6.35;;;3.80;;
17844;SDS011;9047;53.486;10.218;2023-11-21T12:16:54;5.25;;;3.45;;
17844;SDS011;9047;53.486;10.218;2023-11-21T12:19:21;5.65;;;3.40;;
17844;SDS011;9047;53.486;10.218;2023-11-21T12:21:49;4.60;;;3.40;;
17844;SDS011;9047;53.486;10.218;2023-11-21T12:24:17;5.75;;;3.50;;
17844;SDS011;9047;53.486;10.218;2023-11-21T12:26:44;4.85;;;3.40;;
17844;SDS011;9047;53.486;10.218;2023-11-21T12:29:11;3.80;;;3.00;;
17844;SDS011;9047;53.486;10.218;2023-11-21T12:31:41;6.18;;;3.55;;
17844;SDS011;9047;53.486;10.218;2023-11-21T12:34:08;4.53;;;3.50;;
17844;SDS011;9047;53.486;10.218;2023-11-21T12:36:37;4.88;;;3.13;;
17844;SDS011;9047;53.486;10.218;2023-11-21T12:39:05;4.57;;;3.60;;
17844;SDS011;9047;53.486;10.218;2023-11-21T12:41:34;5.43;;;4.00;;
17844;SDS011;9047;53.486;10.218;2023-11-21T12:44:01;7.33;;;4.00;;
17844;SDS011;9047;53.486;10.218;2023-11-21T12:46:28;6.68;;;4.20;;
17844;SDS011;9047;53.486;10.218;2023-11-21T12:48:59;7.60;;;4.10;;
17844;SDS011;9047;53.486;10.218;2023-11-21T12:51:26;5.38;;;3.83;;
17844;SDS011;9047;53.486;10.218;2023-11-21T12:53:54;7.57;;;4.00;;
17844;SDS011;9047;53.486;10.218;2023-11-21T12:56:23;6.25;;;3.70;;
17844;SDS011;9047;53.486;10.218;2023-11-21T12:58:50;5.57;;;4.05;;
17844;SDS011;9047;53.486;10.218;2023-11-21T13:01:25;6.57;;;4.57;;
17844;SDS011;9047;53.486;10.218;2023-11-21T13:03:54;6.72;;;4.03;;
17844;SDS011;9047;53.486;10.218;2023-11-21T13:06:24;7.03;;;3.90;;
17844;SDS011;9047;53.486;10.218;2023-11-21T13:08:51;5.88;;;3.92;;
17844;SDS011;9047;53.486;10.218;2023-11-21T13:11:20;8.07;;;4.03;;
17844;SDS011;9047;53.486;10.218;2023-11-21T13:13:51;5.53;;;3.92;;
17844;SDS011;9047;53.486;10.218;2023-11-21T13:16:21;5.60;;;3.60;;
17844;SDS011;9047;53.486;10.218;2023-11-21T13:18:48;8.18;;;4.00;;
17844;SDS011;9047;53.486;10.218;2023-11-21T13:21:15;5.20;;;3.80;;
17844;SDS011;9047;53.486;10.218;2023-11-21T13:23:44;5.65;;;3.80;;
17844;SDS011;9047;53.486;10.218;2023-11-21T13:26:13;5.90;;;4.00;;
17844;SDS011;9047;53.486;10.218;2023-11-21T13:28:41;6.93;;;3.97;;
17844;SDS011;9047;53.486;10.218;2023-11-21T13:31:11;6.05;;;3.95;;
17844;SDS011;9047;53.486;10.218;2023-11-21T13:33:52;6.07;;;3.40;;
17844;SDS011;9047;53.486;10.218;2023-11-21T13:36:26;7.90;;;3.60;;
17844;SDS011;9047;53.486;10.218;2023-11-21T13:38:58;6.45;;;3.75;;
17844;SDS011;9047;53.486;10.218;2023-11-21T13:41:30;4.90;;;3.50;;
17844;SDS011;9047;53.486;10.218;2023-11-21T13:43:57;5.50;;;3.35;;
17844;SDS011;9047;53.486;10.218;2023-11-21T13:46:31;5.90;;;3.40;;
17844;SDS011;9047;53.486;10.218;2023-11-21T13:49:02;8.32;;;3.70;;
17844;SDS011;9047;53.486;10.218;2023-11-21T13:51:34;6.18;;;3.40;;
17844;SDS011;9047;53.486;10.218;2023-11-21T13:54:10;5.57;;;3.60;;
17844;SDS011;9047;53.486;10.218;2023-11-21T13:56:37;4.72;;;3.30;;
17844;SDS011;9047;53.486;10.218;2023-11-21T13:59:06;5.75;;;3.80;;
17844;SDS011;9047;53.486;10.218;2023-11-21T14:01:45;6.40;;;3.42;;
17844;SDS011;9047;53.486;10.218;2023-11-21T14:04:20;5.28;;;3.67;;
17844;SDS011;9047;53.486;10.218;2023-11-21T14:07:00;5.75;;;3.50;;
17844;SDS011;9047;53.486;10.218;2023-11-21T14:09:45;6.13;;;3.67;;
17844;SDS011;9047;53.486;10.218;2023-11-21T14:12:14;5.45;;;3.60;;
17844;SDS011;9047;53.486;10.218;2023-11-21T14:14:42;6.32;;;3.90;;
17844;SDS011;9047;53.486;10.218;2023-11-21T14:17:11;6.22;;;3.75;;
17844;SDS011;9047;53.486;10.218;2023-11-21T14:19:38;5.65;;;3.97;;
17844;SDS011;9047;53.486;10.218;2023-11-21T14:22:08;7.35;;;3.70;;
17844;SDS011;9047;53.486;10.218;2023-11-21T14:24:35;4.68;;;3.60;;
17844;SDS011;9047;53.486;10.218;2023-11-21T14:27:08;6.70;;;3.80;;
17844;SDS011;9047;53.486;10.218;2023-11-21T14:29:35;8.30;;;3.85;;
17844;SDS011;9047;53.486;10.218;2023-11-21T14:32:04;5.65;;;3.42;;
17844;SDS011;9047;53.486;10.218;2023-11-21T14:34:33;7.45;;;3.75;;
17844;SDS011;9047;53.486;10.218;2023-11-21T14:37:03;5.70;;;3.20;;
17844;SDS011;9047;53.486;10.218;2023-11-21T14:39:32;7.40;;;3.22;;